Time;durP1;ratioP1;P1;durP2;ratioP2;P2;SDS_P1;SDS_P2;PMS_P1;PMS_P2;Temp;Humidity;BMP_temperature;BMP_pressure;BME280_temperature;BME280_humidity;BME280_pressure;Samples;Min_cycle;Max_cycle;Signal;HPM_P1;HPM_P2
2022/01/17 00:00:30;;;;;;;63.57;44.47;;;;;;;-1.60;64.59;95466.81;6165885;23;20186;-63
2022/01/17 00:02:59;;;;;;;62.87;43.10;;;;;;;-1.67;64.35;95457.66;6164884;23;20247;-64
2022/01/17 00:05:25;;;;;;;68.20;43.20;;;;;;;-1.70;64.45;95455.22;6165403;23;20198;-63
2022/01/17 00:07:50;;;;;;;61.97;42.20;;;;;;;-1.71;64.69;95453.53;6165513;23;20199;-63
2022/01/17 00:10:16;;;;;;;62.87;43.10;;;;;;;-1.70;64.63;95460.38;6164215;23;20215;-63
2022/01/17 00:12:45;;;;;;;61.50;41.87;;;;;;;-1.69;64.20;95444.81;6165226;23;20191;-62
2022/01/17 00:15:23;;;;;;;59.50;40.07;;;;;;;-1.61;64.10;95453.06;6165715;23;20182;-62
2022/01/17 00:18:08;;;;;;;57.97;40.33;;;;;;;-1.69;64.57;95459.47;6164963;23;20257;-62
2022/01/17 00:20:52;;;;;;;61.53;43.00;;;;;;;-1.86;65.57;95455.88;5076235;28;20574;-63
2022/01/17 00:23:18;;;;;;;61.67;39.70;;;;;;;-1.70;64.67;95457.81;5047731;28;20293;-61
2022/01/17 00:25:43;;;;;;;62.43;40.73;;;;;;;-1.65;64.26;95450.72;5038127;28;20217;-64
2022/01/17 00:28:09;;;;;;;57.13;38.70;;;;;;;-1.82;64.61;95452.28;5037259;28;20237;-65
2022/01/17 00:30:34;;;;;;;55.83;38.10;;;;;;;-1.81;64.94;95464.25;5040668;28;20206;-64
2022/01/17 00:33:00;;;;;;;60.47;41.47;;;;;;;-1.90;64.99;95461.22;5038243;28;20266;-65
2022/01/17 00:35:25;;;;;;;60.13;43.13;;;;;;;-1.93;65.38;95461.38;5037436;28;20300;-62
2022/01/17 00:37:52;;;;;;;56.73;39.53;;;;;;;-1.95;65.56;95463.16;5038701;28;20229;-65
2022/01/17 00:40:18;;;;;;;57.40;40.20;;;;;;;-1.98;65.34;95471.84;5038579;28;20218;-62
2022/01/17 00:42:44;;;;;;;59.10;40.60;;;;;;;-2.09;65.73;95456.03;5039564;28;20220;-65
2022/01/17 00:45:12;;;;;;;56.27;39.80;;;;;;;-2.12;65.99;95466.47;5037421;28;20202;-65
2022/01/17 00:47:38;;;;;;;55.93;38.67;;;;;;;-1.99;65.22;95467.63;5038922;28;20226;-63
2022/01/17 00:50:05;;;;;;;56.70;39.77;;;;;;;-1.96;64.66;95464.91;5035302;28;20217;-62
2022/01/17 00:52:31;;;;;;;61.50;41.23;;;;;;;-2.02;65.25;95452.28;5037797;28;20256;-61
2022/01/17 00:54:56;;;;;;;62.60;41.73;;;;;;;-2.04;65.50;95454.09;5038713;28;20218;-65
2022/01/17 00:57:22;;;;;;;56.10;38.97;;;;;;;-1.88;64.64;95443.97;5035992;28;20198;-64
2022/01/17 00:59:48;;;;;;;54.60;39.13;;;;;;;-1.90;64.36;95451.75;5034400;28;20226;-62
2022/01/17 01:02:13;;;;;;;54.80;38.50;;;;;;;-2.03;64.75;95448.06;5036024;28;20244;-62
2022/01/17 01:04:39;;;;;;;62.30;41.10;;;;;;;-2.07;64.92;95447.31;5034884;28;20221;-65
2022/01/17 01:07:04;;;;;;;55.17;39.37;;;;;;;-2.14;65.44;95447.66;5033786;28;20280;-62
2022/01/17 01:09:36;;;;;;;55.60;38.80;;;;;;;-2.15;65.25;95445.97;5028412;28;20206;-64
2022/01/17 01:12:02;;;;;;;54.37;38.13;;;;;;;-2.18;65.46;95436.63;5027197;28;20207;-62
2022/01/17 01:14:27;;;;;;;54.87;37.83;;;;;;;-2.11;65.55;95438.06;5027374;28;20216;-66
2022/01/17 01:16:54;;;;;;;47.13;34.67;;;;;;;-2.14;65.42;95427.88;5030178;28;20268;-64
2022/01/17 01:28:00;;;;;;;46.67;32.17;;;;;;;-2.08;64.72;95424.22;5031291;28;20229;-61
2022/01/17 01:30:10;;;;;;;50.67;33.40;;;;;;;-2.08;64.94;95421.66;5025979;28;20250;-62
2022/01/17 01:32:44;;;;;;;45.77;30.53;;;;;;;-2.05;64.76;95417.19;5003422;28;20294;-61
2022/01/17 01:35:12;;;;;;;51.20;32.50;;;;;;;-2.00;64.56;95415.25;5004861;28;20245;-63
2022/01/17 01:37:38;;;;;;;47.50;31.37;;;;;;;-1.91;64.23;95416.59;5016621;28;20303;-62
2022/01/17 01:40:06;;;;;;;43.93;32.70;;;;;;;-1.90;64.54;95427.72;5006124;28;20219;-62
2022/01/17 01:42:33;;;;;;;46.97;32.60;;;;;;;-1.99;64.45;95423.81;5015647;28;20255;-62
2022/01/17 01:44:59;;;;;;;45.77;31.47;;;;;;;-2.09;64.86;95422.53;5007947;28;20211;-62
2022/01/17 01:47:26;;;;;;;47.57;32.50;;;;;;;-2.24;65.05;95422.28;5005457;28;20235;-61
2022/01/17 01:49:53;;;;;;;44.43;30.57;;;;;;;-2.29;65.65;95424.22;5015325;28;20227;-62
2022/01/17 01:52:18;;;;;;;51.20;33.63;;;;;;;-2.23;65.14;95423.94;5017150;28;20219;-62
2022/01/17 01:54:44;;;;;;;51.60;33.40;;;;;;;-2.32;65.29;95419.19;5003939;28;20273;-62
2022/01/17 01:57:11;;;;;;;50.23;34.17;;;;;;;-2.29;65.44;95420.81;5006264;28;20204;-62
2022/01/17 01:59:37;;;;;;;47.10;33.00;;;;;;;-2.30;65.36;95414.81;5012719;28;20218;-62
2022/01/17 02:02:04;;;;;;;50.53;34.30;;;;;;;-2.26;65.54;95406.06;5010363;28;20225;-61
2022/01/17 02:04:29;;;;;;;46.13;33.90;;;;;;;-2.22;65.33;95410.19;5015736;28;20290;-62
2022/01/17 02:06:55;;;;;;;47.43;33.17;;;;;;;-2.22;65.34;95401.59;5014602;28;20230;-62
2022/01/17 02:09:23;;;;;;;50.37;32.90;;;;;;;-2.08;64.95;95398.44;5016679;28;20203;-61
2022/01/17 02:11:49;;;;;;;46.73;32.83;;;;;;;-2.18;64.51;95394.59;5013993;28;20237;-62
2022/01/17 02:14:15;;;;;;;49.63;33.57;;;;;;;-2.20;64.75;95397.22;5022388;28;20226;-61
2022/01/17 02:16:43;;;;;;;48.77;32.50;;;;;;;-2.11;64.72;95395.97;5016962;28;20253;-61
2022/01/17 02:19:08;;;;;;;46.00;32.63;;;;;;;-2.08;64.38;95385.56;5015389;28;20274;-62
2022/01/17 02:21:45;;;;;;;47.70;33.77;;;;;;;-2.03;64.05;95389.63;5002510;28;20216;-62
2022/01/17 02:24:16;;;;;;;44.03;31.60;;;;;;;-2.03;63.90;95383.63;5018026;28;20205;-61
2022/01/17 02:26:42;;;;;;;45.80;30.60;;;;;;;-2.06;63.63;95388.88;5015760;28;20219;-61
2022/01/17 02:29:07;;;;;;;42.20;31.57;;;;;;;-2.05;63.41;95390.59;5015542;28;20226;-61
2022/01/17 02:31:33;;;;;;;41.77;29.47;;;;;;;-2.08;63.65;95380.41;5008387;28;20278;-61
2022/01/17 02:33:59;;;;;;;40.83;29.03;;;;;;;-2.02;63.32;95396.44;5017757;28;20217;-65
2022/01/17 02:36:25;;;;;;;39.37;27.57;;;;;;;-2.06;63.15;95394.03;5014172;28;20231;-62
2022/01/17 02:38:51;;;;;;;42.20;30.67;;;;;;;-2.12;63.73;95384.00;5014887;28;20238;-62
2022/01/17 02:41:17;;;;;;;40.07;29.60;;;;;;;-2.11;63.98;95385.69;5013829;28;20212;-64
2022/01/17 02:43:43;;;;;;;39.03;28.00;;;;;;;-2.22;63.94;95389.56;5005639;28;20264;-61
2022/01/17 02:48:36;;;;;;;40.83;28.63;;;;;;;-2.28;64.10;95401.88;4998897;28;20207;-64
2022/01/17 02:51:03;;;;;;;39.50;28.40;;;;;;;-2.25;64.14;95399.16;4994792;28;20212;-62
2022/01/17 02:53:29;;;;;;;41.60;30.70;;;;;;;-2.31;64.76;95392.53;5001774;28;20223;-66
2022/01/17 02:55:58;;;;;;;46.23;31.23;;;;;;;-2.48;65.30;95400.13;4996275;28;20282;-62
2022/01/17 02:58:25;;;;;;;43.53;32.77;;;;;;;-2.56;65.75;95392.72;4994207;28;20227;-63
2022/01/17 03:00:53;;;;;;;53.27;35.07;;;;;;;-2.50;65.79;95397.63;4997149;28;20243;-64
2022/01/17 03:03:21;;;;;;;48.90;33.87;;;;;;;-2.51;65.87;95389.97;5012471;28;20203;-66
2022/01/17 03:05:48;;;;;;;43.80;31.30;;;;;;;-2.48;65.96;95395.00;5013927;28;20218;-62
2022/01/17 03:08:15;;;;;;;46.53;34.00;;;;;;;-2.44;65.26;95388.78;5019515;28;20227;-64
2022/01/17 03:10:43;;;;;;;48.33;34.27;;;;;;;-2.33;64.99;95388.34;5018496;28;20218;-63
2022/01/17 03:13:13;;;;;;;51.50;34.77;;;;;;;-2.32;64.77;95383.13;5012076;28;20223;-62
2022/01/17 03:15:40;;;;;;;52.20;35.43;;;;;;;-2.27;64.56;95386.34;5017366;28;20203;-65
2022/01/17 03:18:06;;;;;;;46.23;32.60;;;;;;;-2.22;64.33;95363.81;5016005;28;20237;-63
2022/01/17 03:20:37;;;;;;;51.00;33.10;;;;;;;-2.32;64.48;95383.13;5016855;28;20231;-65
2022/01/17 03:23:04;;;;;;;50.90;33.33;;;;;;;-2.42;64.43;95370.72;5018131;28;20239;-64
2022/01/17 03:25:29;;;;;;;51.33;33.23;;;;;;;-2.41;64.76;95375.78;5017618;28;20218;-65
2022/01/17 03:27:56;;;;;;;49.13;33.40;;;;;;;-2.35;64.83;95382.41;5013569;28;20245;-61
2022/01/17 03:30:22;;;;;;;47.53;32.70;;;;;;;-2.27;64.52;95372.66;5024636;28;20198;-64
2022/01/17 03:32:48;;;;;;;45.13;31.40;;;;;;;-2.31;64.52;95379.66;5018733;28;20222;-64
2022/01/17 03:35:14;;;;;;;42.93;30.93;;;;;;;-2.41;64.92;95378.34;5013992;28;20249;-63
2022/01/17 03:37:40;;;;;;;45.30;31.30;;;;;;;-2.34;64.93;95384.94;5016574;28;20261;-65
2022/01/17 03:40:07;;;;;;;40.83;29.77;;;;;;;-2.32;64.60;95387.47;5016762;28;20236;-62
2022/01/17 03:42:33;;;;;;;39.97;29.83;;;;;;;-2.23;64.26;95397.34;5015009;28;20329;-66
2022/01/17 03:45:00;;;;;;;41.43;28.87;;;;;;;-2.22;63.89;95394.72;5020058;28;20206;-65
2022/01/17 03:47:26;;;;;;;40.77;28.53;;;;;;;-2.24;63.63;95396.53;5017613;28;20543;-65
2022/01/17 03:49:51;;;;;;;40.83;28.47;;;;;;;-2.38;64.53;95401.41;5016404;28;20214;-63
2022/01/17 03:52:17;;;;;;;42.07;29.40;;;;;;;-2.32;64.47;95397.75;5017994;28;20242;-65
2022/01/17 03:54:43;;;;;;;42.57;30.03;;;;;;;-2.17;64.07;95404.81;5013099;28;20312;-65
2022/01/17 03:57:08;;;;;;;41.20;28.93;;;;;;;-2.14;63.72;95403.84;5016154;28;20245;-64
2022/01/17 03:59:34;;;;;;;41.30;27.17;;;;;;;-2.29;63.80;95403.59;5017264;28;20230;-65
2022/01/17 04:02:00;;;;;;;40.67;28.23;;;;;;;-2.22;63.65;95399.88;5016335;28;20219;-63
2022/01/17 04:04:25;;;;;;;42.80;28.40;;;;;;;-2.29;63.51;95402.78;5016899;28;20227;-63
2022/01/17 04:06:51;;;;;;;44.37;27.87;;;;;;;-2.45;64.33;95407.72;5016097;28;20242;-62
2022/01/17 04:09:16;;;;;;;43.57;29.50;;;;;;;-2.42;64.80;95407.59;5016587;28;20278;-62
2022/01/17 04:11:42;;;;;;;42.00;29.73;;;;;;;-2.46;64.54;95393.16;5013576;28;20223;-62
2022/01/17 04:14:09;;;;;;;39.27;28.70;;;;;;;-2.61;65.21;95399.81;5013596;28;20254;-64
2022/01/17 04:16:35;;;;;;;43.97;29.10;;;;;;;-2.77;65.78;95402.16;5018136;28;20231;-66
2022/01/17 04:19:02;;;;;;;44.17;30.30;;;;;;;-2.81;66.29;95412.63;5018562;28;20284;-65
2022/01/17 04:21:33;;;;;;;42.20;29.57;;;;;;;-2.74;66.16;95402.03;5018374;28;20202;-63
2022/01/17 04:23:59;;;;;;;42.70;30.43;;;;;;;-2.63;66.01;95409.31;5031677;28;20211;-66
2022/01/17 04:26:25;;;;;;;42.23;29.23;;;;;;;-2.68;66.42;95412.06;5013726;28;20223;-63
2022/01/17 04:28:50;;;;;;;46.33;30.40;;;;;;;-2.59;65.55;95405.72;5016588;28;20222;-64
2022/01/17 04:31:16;;;;;;;40.70;28.33;;;;;;;-2.58;65.73;95404.00;5015016;28;20233;-63
2022/01/17 04:33:42;;;;;;;38.37;25.73;;;;;;;-2.42;65.47;95407.59;5014859;28;20225;-62
2022/01/17 04:36:10;;;;;;;36.83;24.03;;;;;;;-2.53;65.04;95400.31;5017378;28;20206;-65
2022/01/17 04:38:37;;;;;;;39.87;27.20;;;;;;;-2.56;65.30;95409.91;5012078;28;20229;-65
2022/01/17 04:41:12;;;;;;;38.70;27.23;;;;;;;-2.62;65.74;95400.72;5014221;28;20226;-63
2022/01/17 04:46:05;;;;;;;41.40;29.00;;;;;;;-2.59;65.68;95397.16;5013466;28;20309;-64
2022/01/17 04:48:31;;;;;;;40.83;28.17;;;;;;;-2.64;65.96;95388.81;5016197;28;20211;-64
2022/01/17 04:50:58;;;;;;;44.53;29.93;;;;;;;-2.64;65.35;95384.50;5014314;28;20223;-65
2022/01/17 04:53:28;;;;;;;45.10;30.03;;;;;;;-2.62;65.10;95395.56;5016893;28;20243;-63
2022/01/17 04:55:54;;;;;;;41.67;29.03;;;;;;;-2.69;65.63;95383.84;5015275;28;20223;-63
2022/01/17 04:58:19;;;;;;;43.27;27.70;;;;;;;-2.71;65.46;95385.63;5016823;28;20234;-66
2022/01/17 05:00:48;;;;;;;38.83;27.33;;;;;;;-2.56;65.17;95384.19;5017209;28;20305;-63
2022/01/17 05:03:14;;;;;;;41.53;28.40;;;;;;;-2.64;65.14;95393.94;5015945;28;20203;-63
2022/01/17 05:05:40;;;;;;;43.27;27.50;;;;;;;-2.68;65.37;95388.06;5011453;28;20289;-63
2022/01/17 05:08:06;;;;;;;38.97;28.30;;;;;;;-2.72;65.15;95395.09;5018354;28;20249;-62
2022/01/17 05:10:31;;;;;;;42.83;29.00;;;;;;;-2.84;65.85;95385.28;5019226;28;20214;-62
2022/01/17 05:12:57;;;;;;;43.87;29.27;;;;;;;-2.83;65.97;95389.56;5019069;28;20215;-63
2022/01/17 05:15:35;;;;;;;40.17;29.20;;;;;;;-2.61;65.83;95383.53;5017276;28;20234;-62
2022/01/17 05:20:30;;;;;;;39.20;29.53;;;;;;;-2.61;65.11;95392.09;5017886;28;20238;-62
2022/01/17 05:22:56;;;;;;;40.07;29.23;;;;;;;-2.64;65.06;95389.63;5018584;28;20241;-64
2022/01/17 05:25:22;;;;;;;43.53;28.40;;;;;;;-2.83;65.97;95394.69;5023273;28;20233;-62
2022/01/17 05:27:47;;;;;;;41.10;29.23;;;;;;;-2.59;65.68;95404.88;5014494;28;20230;-62
2022/01/17 05:30:16;;;;;;;40.60;27.27;;;;;;;-2.55;65.49;95407.25;5019356;28;20207;-62
2022/01/17 05:32:42;;;;;;;41.80;28.03;;;;;;;-2.72;66.02;95389.13;5019109;28;20242;-63
2022/01/17 05:35:09;;;;;;;37.43;27.00;;;;;;;-2.76;66.38;95390.97;5018162;28;20255;-62
2022/01/17 05:37:35;;;;;;;38.87;27.73;;;;;;;-2.69;65.97;95383.84;5034455;28;20254;-63
2022/01/17 05:40:01;;;;;;;38.57;27.80;;;;;;;-2.64;65.94;95387.06;5019549;28;20286;-62
2022/01/17 05:42:26;;;;;;;42.37;29.20;;;;;;;-2.61;66.11;95389.50;5013387;28;20200;-62
2022/01/17 05:44:53;;;;;;;44.63;29.23;;;;;;;-2.59;65.98;95402.28;5018891;28;20206;-62
2022/01/17 05:47:19;;;;;;;42.97;29.00;;;;;;;-2.50;65.99;95404.50;5019512;28;20223;-63
2022/01/17 05:49:44;;;;;;;44.00;29.80;;;;;;;-2.58;65.89;95404.00;5021921;28;20237;-63
2022/01/17 05:52:10;;;;;;;43.73;28.97;;;;;;;-2.59;65.98;95392.00;5019739;28;20250;-64
2022/01/17 05:54:36;;;;;;;43.77;29.13;;;;;;;-2.49;65.68;95401.84;5015348;28;20689;-61
2022/01/17 05:57:02;;;;;;;38.13;27.03;;;;;;;-2.59;65.50;95410.88;5016062;28;20217;-62
2022/01/17 05:59:27;;;;;;;43.10;27.60;;;;;;;-2.74;65.85;95411.50;5018288;28;20215;-61
2022/01/17 06:01:53;;;;;;;39.23;26.93;;;;;;;-2.52;65.45;95416.59;5016108;28;20219;-62
2022/01/17 06:04:20;;;;;;;42.47;29.30;;;;;;;-2.57;65.83;95421.09;5012965;28;20306;-62
2022/01/17 06:06:46;;;;;;;43.23;29.27;;;;;;;-2.57;65.88;95421.09;5020866;28;20252;-62
2022/01/17 06:09:12;;;;;;;40.33;27.70;;;;;;;-2.53;65.59;95414.94;5019397;28;20234;-61
2022/01/17 06:11:37;;;;;;;53.90;28.73;;;;;;;-2.56;65.81;95417.66;5015254;28;20218;-63
2022/01/17 06:14:04;;;;;;;43.33;29.97;;;;;;;-2.53;65.68;95422.66;5014422;28;20273;-62
2022/01/17 06:16:30;;;;;;;39.27;28.77;;;;;;;-2.62;66.23;95412.72;5011400;28;20219;-65
2022/01/17 06:18:56;;;;;;;41.27;29.40;;;;;;;-2.51;66.19;95416.56;4998271;28;20235;-62
2022/01/17 06:21:21;;;;;;;46.63;30.00;;;;;;;-2.34;65.49;95422.75;5018554;28;20210;-63
2022/01/17 06:23:47;;;;;;;43.50;31.03;;;;;;;-2.34;65.26;95417.59;5021369;28;20218;-62
2022/01/17 06:26:13;;;;;;;40.67;29.87;;;;;;;-2.25;64.90;95419.75;5023340;28;20286;-63
2022/01/17 06:28:38;;;;;;;43.10;30.33;;;;;;;-2.16;65.21;95423.72;5015167;28;20226;-63
2022/01/17 06:31:04;;;;;;;43.17;29.50;;;;;;;-2.10;64.52;95428.59;5017787;28;20219;-64
2022/01/17 06:33:30;;;;;;;45.60;30.97;;;;;;;-2.05;64.42;95431.81;5016561;28;20275;-63
2022/01/17 06:35:55;;;;;;;47.57;29.57;;;;;;;-2.15;64.27;95422.78;5016231;28;20274;-66
2022/01/17 06:38:21;;;;;;;41.43;29.27;;;;;;;-2.07;64.35;95418.16;5018192;28;20217;-64
2022/01/17 06:40:46;;;;;;;43.93;29.50;;;;;;;-2.10;64.66;95413.97;5019205;28;20237;-62
2022/01/17 06:43:12;;;;;;;42.13;29.23;;;;;;;-2.01;64.33;95417.88;5011464;28;20236;-63
2022/01/17 06:45:38;;;;;;;39.63;28.53;;;;;;;-1.91;63.91;95426.88;5016536;28;20322;-63
2022/01/17 06:48:05;;;;;;;41.40;29.23;;;;;;;-1.81;63.75;95438.47;5018513;28;20207;-65
2022/01/17 06:50:32;;;;;;;35.83;25.73;;;;;;;-1.77;62.91;95434.03;5013585;28;20220;-63
2022/01/17 06:53:01;;;;;;;41.17;26.33;;;;;;;-1.79;62.74;95433.28;5008204;28;20250;-63
2022/01/17 06:55:26;;;;;;;41.07;27.53;;;;;;;-1.77;62.63;95432.28;5005726;28;20227;-62
2022/01/17 06:57:52;;;;;;;44.27;29.60;;;;;;;-1.87;63.30;95425.00;5014852;28;20283;-63
2022/01/17 07:00:18;;;;;;;39.67;28.70;;;;;;;-1.65;63.23;95428.34;5015586;28;20250;-63
2022/01/17 07:02:43;;;;;;;38.80;26.43;;;;;;;-1.56;62.33;95427.06;5007034;28;20227;-62
2022/01/17 07:05:09;;;;;;;37.90;27.13;;;;;;;-1.52;62.52;95413.16;5017191;28;20253;-63
2022/01/17 07:07:34;;;;;;;39.80;27.77;;;;;;;-1.43;61.75;95417.06;5011930;28;20223;-61
2022/01/17 07:10:00;;;;;;;39.33;26.40;;;;;;;-1.26;61.15;95429.16;5018298;28;20223;-62
2022/01/17 07:12:25;;;;;;;32.50;24.07;;;;;;;-1.20;59.60;95436.66;5013524;28;20265;-67
2022/01/17 07:14:51;;;;;;;38.17;25.20;;;;;;;-1.12;59.14;95435.38;5015737;28;20217;-62
2022/01/17 07:17:17;;;;;;;33.10;23.60;;;;;;;-1.04;58.78;95435.03;5019017;28;20242;-64
2022/01/17 07:19:42;;;;;;;35.03;24.40;;;;;;;-0.94;58.40;95436.25;5015526;28;20296;-62
2022/01/17 07:22:08;;;;;;;31.90;23.87;;;;;;;-0.82;58.27;95445.19;5016093;28;20250;-66
2022/01/17 07:24:34;;;;;;;35.03;21.83;;;;;;;-0.72;57.76;95461.91;5011975;28;20253;-63
2022/01/17 07:27:01;;;;;;;34.50;23.77;;;;;;;-0.67;57.46;95474.59;5015099;28;20215;-62
2022/01/17 07:29:26;;;;;;;34.00;20.80;;;;;;;-0.64;57.10;95471.88;5014309;28;20226;-62
2022/01/17 07:31:53;;;;;;;32.07;21.03;;;;;;;-0.53;56.61;95454.13;5000409;28;20250;-62
2022/01/17 07:34:19;;;;;;;31.20;20.03;;;;;;;-0.38;56.47;95446.53;4997887;28;20254;-62
2022/01/17 07:36:45;;;;;;;29.30;20.77;;;;;;;-0.33;56.12;95447.13;4997871;28;20211;-63
2022/01/17 07:39:11;;;;;;;35.77;22.60;;;;;;;-0.31;56.36;95432.41;5001061;28;20219;-63
2022/01/17 07:41:36;;;;;;;31.63;22.30;;;;;;;-0.09;55.72;95427.81;5014464;28;20222;-66
2022/01/17 07:44:03;;;;;;;34.43;23.63;;;;;;;-0.06;55.56;95419.91;5014310;28;20247;-63
2022/01/17 07:46:36;;;;;;;38.83;22.67;;;;;;;0.02;55.52;95423.88;5015947;28;20222;-61
2022/01/17 07:49:16;;;;;;;32.17;21.67;;;;;;;0.15;55.66;95436.09;5011920;28;20309;-62
2022/01/17 07:51:44;;;;;;;33.07;22.37;;;;;;;0.27;55.51;95444.97;4998654;28;20213;-62
2022/01/17 07:54:11;;;;;;;34.90;22.07;;;;;;;0.35;55.04;95452.34;5014373;28;20203;-63
2022/01/17 07:56:38;;;;;;;32.37;21.57;;;;;;;0.50;54.95;95466.22;5012092;28;20280;-62
2022/01/17 07:59:04;;;;;;;35.27;22.13;;;;;;;0.48;55.00;95488.75;5013250;28;20230;-62
2022/01/17 08:01:30;;;;;;;29.80;20.47;;;;;;;0.59;54.55;95528.69;5016279;28;20218;-64
2022/01/17 08:03:56;;;;;;;30.40;20.23;;;;;;;0.77;54.43;95521.72;5016951;28;20238;-62
2022/01/17 08:06:22;;;;;;;31.40;18.03;;;;;;;1.00;53.80;95497.22;5014967;28;20202;-62
2022/01/17 08:08:48;;;;;;;23.00;14.13;;;;;;;1.33;51.58;95496.28;5008791;28;20229;-61
2022/01/17 08:11:16;;;;;;;19.63;12.50;;;;;;;1.48;51.12;95466.94;5015909;28;20257;-61
2022/01/17 08:13:41;;;;;;;14.43;8.30;;;;;;;1.71;49.64;95425.91;5013419;28;20250;-63
2022/01/17 08:16:07;;;;;;;17.50;9.50;;;;;;;1.87;49.60;95421.53;5010985;28;20302;-64
2022/01/17 08:18:33;;;;;;;14.30;9.37;;;;;;;1.96;49.51;95414.97;5013906;28;20242;-63
2022/01/17 08:20:59;;;;;;;12.47;8.03;;;;;;;2.13;49.53;95408.78;5016927;28;20237;-62
2022/01/17 08:23:25;;;;;;;12.03;7.67;;;;;;;2.36;49.01;95403.06;5012091;28;20231;-63
2022/01/17 08:25:51;;;;;;;7.93;5.90;;;;;;;2.49;48.52;95438.69;5009683;28;20238;-62
2022/01/17 08:28:16;;;;;;;8.93;5.03;;;;;;;2.60;48.41;95472.59;5013955;28;20227;-63
2022/01/17 08:30:42;;;;;;;6.73;5.07;;;;;;;2.75;47.84;95496.81;5012393;28;20250;-65
2022/01/17 08:33:07;;;;;;;6.50;4.70;;;;;;;2.78;48.40;95514.78;5014470;28;20286;-66
2022/01/17 08:35:33;;;;;;;6.23;4.93;;;;;;;2.99;47.91;95530.84;5013537;28;20287;-63
2022/01/17 08:37:59;;;;;;;6.30;4.80;;;;;;;3.04;47.75;95547.00;5001520;28;20223;-67
2022/01/17 08:40:24;;;;;;;9.43;5.40;;;;;;;3.12;47.66;95500.59;4999944;28;20245;-67
2022/01/17 08:42:50;;;;;;;8.90;5.10;;;;;;;3.02;47.54;95463.09;5017366;28;20218;-67
2022/01/17 08:45:18;;;;;;;10.97;6.30;;;;;;;3.27;47.28;95484.06;5016095;28;20227;-67
2022/01/17 08:47:49;;;;;;;12.87;7.60;;;;;;;3.19;48.47;95454.28;5013350;28;20228;-67
2022/01/17 08:50:16;;;;;;;11.67;7.90;;;;;;;3.18;49.30;95442.19;5014423;28;20229;-67
2022/01/17 08:52:44;;;;;;;12.87;8.40;;;;;;;3.32;49.53;95434.38;5015129;28;20223;-61
2022/01/17 08:55:09;;;;;;;10.43;8.23;;;;;;;3.39;49.17;95383.66;5016445;28;20227;-62
2022/01/17 08:57:35;;;;;;;10.93;9.30;;;;;;;3.40;48.26;95371.50;5016472;28;20349;-65
2022/01/17 09:00:02;;;;;;;11.87;8.83;;;;;;;3.52;49.01;95399.28;5021402;28;20222;-63
2022/01/17 09:02:27;;;;;;;10.33;9.23;;;;;;;3.47;49.04;95396.16;5002356;28;20242;-62
2022/01/17 09:04:53;;;;;;;12.93;9.03;;;;;;;3.35;49.51;95360.59;5019705;28;20234;-62
2022/01/17 09:07:18;;;;;;;12.30;9.40;;;;;;;3.39;49.36;95316.06;5018110;28;20252;-62
2022/01/17 09:09:45;;;;;;;13.80;9.80;;;;;;;3.52;48.90;95334.28;5014923;28;20199;-63
2022/01/17 09:12:12;;;;;;;13.30;9.33;;;;;;;3.69;48.44;95321.03;5024305;28;20321;-62
2022/01/17 09:14:38;;;;;;;16.57;9.20;;;;;;;3.80;47.51;95324.69;5014751;28;20246;-64
2022/01/17 09:17:09;;;;;;;11.43;8.90;;;;;;;3.86;46.88;95321.66;5017746;28;20238;-66
2022/01/17 09:19:36;;;;;;;11.03;7.30;;;;;;;4.06;45.31;95335.91;5019820;28;20233;-66
2022/01/17 09:22:02;;;;;;;8.20;5.93;;;;;;;4.26;43.88;95327.56;5018501;28;20285;-64
2022/01/17 09:24:28;;;;;;;6.20;3.93;;;;;;;4.41;41.76;95323.91;5021144;28;20207;-65
2022/01/17 09:26:54;;;;;;;5.87;4.37;;;;;;;4.33;42.02;95321.00;5018703;28;20253;-61
2022/01/17 09:29:19;;;;;;;9.30;6.70;;;;;;;4.49;43.38;95322.53;5017885;28;20228;-62
2022/01/17 09:31:45;;;;;;;11.63;8.57;;;;;;;4.46;44.15;95333.16;5011501;28;20230;-62
2022/01/17 09:34:11;;;;;;;10.37;6.47;;;;;;;4.61;42.79;95332.09;5019628;28;20226;-63
2022/01/17 09:36:37;;;;;;;6.00;4.87;;;;;;;4.61;41.61;95338.13;5015845;28;20389;-65
2022/01/17 09:39:05;;;;;;;7.90;6.50;;;;;;;4.63;42.33;95336.25;5016887;28;20229;-63
2022/01/17 09:41:31;;;;;;;12.07;7.43;;;;;;;4.79;43.71;95336.03;5018316;28;20269;-66
2022/01/17 09:43:57;;;;;;;10.93;7.43;;;;;;;4.80;44.03;95353.31;5017694;28;20218;-63
2022/01/17 09:46:27;;;;;;;11.37;7.17;;;;;;;4.70;44.37;95354.06;5014164;28;20253;-64
2022/01/17 09:49:00;;;;;;;11.83;8.07;;;;;;;4.55;44.90;95324.72;5017629;28;20291;-63
2022/01/17 09:54:04;;;;;;;10.37;7.27;;;;;;;4.64;45.45;95350.13;5021659;28;20217;-65
2022/01/17 09:56:31;;;;;;;13.90;8.20;;;;;;;4.70;45.29;95349.69;5018532;28;20298;-61
2022/01/17 09:58:57;;;;;;;12.03;9.17;;;;;;;4.73;45.49;95344.28;5015045;28;20211;-63
2022/01/17 10:01:24;;;;;;;12.80;8.47;;;;;;;4.76;45.71;95354.47;5016701;28;20265;-63
2022/01/17 10:03:51;;;;;;;11.37;8.87;;;;;;;4.74;45.96;95348.53;5018022;28;20215;-65
2022/01/17 10:06:16;;;;;;;10.67;8.93;;;;;;;4.81;46.50;95348.91;5019715;28;20214;-62
2022/01/17 10:08:42;;;;;;;11.00;8.53;;;;;;;4.78;46.75;95365.59;5016899;28;20218;-63
2022/01/17 10:11:15;;;;;;;12.63;8.70;;;;;;;4.71;47.38;95353.97;5012684;28;20236;-64
2022/01/17 10:13:45;;;;;;;14.33;7.47;;;;;;;4.67;48.00;95362.91;5016782;28;20222;-62
2022/01/17 10:16:19;;;;;;;13.33;7.07;;;;;;;4.59;48.27;95358.25;5015640;28;20229;-64
2022/01/17 10:18:54;;;;;;;11.77;6.00;;;;;;;4.61;48.22;95356.38;5014955;28;20203;-64
2022/01/17 10:21:28;;;;;;;6.60;5.60;;;;;;;4.64;48.43;95347.50;5020200;28;20222;-64
2022/01/17 10:24:17;;;;;;;9.80;6.33;;;;;;;4.81;48.26;95341.97;5019709;28;20226;-63
2022/01/17 10:37:12;;;;;;;8.90;4.93;;;;;;;4.84;47.40;95309.66;5018546;28;20218;-62
2022/01/17 10:39:54;;;;;;;5.40;4.67;;;;;;;5.00;47.69;95317.19;5016659;28;20206;-63
2022/01/17 10:42:23;;;;;;;7.17;4.70;;;;;;;4.99;47.22;95305.09;5015207;28;20203;-62
2022/01/17 10:44:49;;;;;;;7.53;5.03;;;;;;;4.87;47.31;95322.44;5015823;28;20218;-62
2022/01/17 10:47:23;;;;;;;7.47;4.87;;;;;;;5.11;46.90;95295.56;5020748;28;20218;-63
2022/01/17 10:50:01;;;;;;;6.53;5.57;;;;;;;5.13;46.88;95312.72;5017755;28;20274;-63
2022/01/17 10:52:40;;;;;;;7.00;5.70;;;;;;;5.35;46.49;95305.97;5021541;28;20228;-62
2022/01/17 10:55:24;;;;;;;5.93;5.33;;;;;;;5.52;45.99;95305.56;5015758;28;20230;-64
2022/01/17 10:57:59;;;;;;;8.53;5.60;;;;;;;5.63;46.08;95318.63;5020342;28;20238;-62
2022/01/17 11:00:31;;;;;;;8.23;6.00;;;;;;;5.82;45.35;95319.84;5013829;28;20276;-61
2022/01/17 11:03:04;;;;;;;9.00;5.80;;;;;;;5.90;45.05;95320.94;5033502;28;20231;-65
2022/01/17 11:05:31;;;;;;;8.73;6.37;;;;;;;5.86;45.33;95309.06;5014879;28;20238;-61
2022/01/17 11:08:02;;;;;;;7.03;6.33;;;;;;;6.12;44.67;95328.03;5014809;28;20230;-67
2022/01/17 11:10:33;;;;;;;8.33;6.67;;;;;;;6.27;44.58;95320.78;5013065;28;20500;-72
2022/01/17 11:13:04;;;;;;;9.13;6.90;;;;;;;6.31;43.93;95306.56;5017122;28;20901;-68
2022/01/17 11:15:34;;;;;;;8.23;6.47;;;;;;;6.48;43.66;95307.03;5016899;28;20214;-73
2022/01/17 11:18:23;;;;;;;8.10;6.67;;;;;;;6.74;42.67;95304.97;5015292;28;20213;-74
2022/01/17 11:20:59;;;;;;;8.07;5.83;;;;;;;6.92;41.93;95310.50;5013206;28;20243;-71
2022/01/17 11:23:27;;;;;;;6.83;5.70;;;;;;;6.71;41.47;95313.03;5017402;28;20218;-68
2022/01/17 11:25:55;;;;;;;7.10;5.10;;;;;;;6.89;41.21;95295.06;5017837;28;20230;-65
2022/01/17 11:28:26;;;;;;;5.57;4.83;;;;;;;6.94;40.21;95298.97;5010883;28;20219;-67
2022/01/17 11:30:55;;;;;;;5.90;4.13;;;;;;;6.64;40.47;95289.19;4995472;28;20244;-66
2022/01/17 11:33:21;;;;;;;4.43;3.90;;;;;;;6.88;39.67;95291.63;5015757;28;20218;-67
2022/01/17 11:35:51;;;;;;;5.07;4.00;;;;;;;6.82;39.69;95274.66;5014539;28;20230;-68
2022/01/17 11:38:22;;;;;;;4.80;4.00;;;;;;;6.72;40.05;95299.03;5016993;28;20222;-68
2022/01/17 11:40:48;;;;;;;4.50;3.67;;;;;;;7.17;39.08;95284.06;5015132;28;20305;-68
2022/01/17 11:43:19;;;;;;;5.17;4.37;;;;;;;7.33;38.18;95288.88;5018130;28;20234;-69
2022/01/17 11:45:46;;;;;;;4.40;4.00;;;;;;;7.46;38.45;95284.31;5017076;28;20245;-67
2022/01/17 11:48:30;;;;;;;4.47;4.07;;;;;;;7.67;37.55;95291.31;5017545;28;20199;-64
2022/01/17 11:51:11;;;;;;;7.67;4.10;;;;;;;7.29;37.96;95297.91;5012412;28;20371;-63
2022/01/17 11:53:40;;;;;;;3.70;3.40;;;;;;;7.21;38.43;95295.09;5015217;28;20222;-64